createdAt,value
2023-04-02T00:00:08.187Z,100994
2023-04-02T00:01:00.902Z,100994
2023-04-02T00:02:10.638Z,100994
2023-04-02T00:03:02.268Z,100994
2023-04-02T00:04:00.680Z,100994
2023-04-02T00:05:10.613Z,101000
2023-04-02T00:06:00.691Z,101000
2023-04-02T00:07:10.608Z,101000
2023-04-02T00:08:02.304Z,101000
2023-04-02T00:09:02.125Z,101000
2023-04-02T00:10:00.717Z,101011
2023-04-02T00:11:00.977Z,101011
2023-04-02T00:12:10.613Z,101011
2023-04-02T00:13:02.608Z,101011
2023-04-02T00:14:01.640Z,101011
2023-04-02T00:15:00.789Z,101020
2023-04-02T00:16:01.517Z,101020
2023-04-02T00:17:02.060Z,101020
2023-04-02T00:18:01.511Z,101020
2023-04-02T00:19:02.926Z,101020
2023-04-02T00:20:02.002Z,101019
2023-04-02T00:21:10.625Z,101019
2023-04-02T00:22:01.736Z,101019
2023-04-02T00:23:01.534Z,101019
2023-04-02T00:24:01.908Z,101019
2023-04-02T00:25:06.529Z,101030
2023-04-02T00:26:00.841Z,101030
2023-04-02T00:27:00.708Z,101030
2023-04-02T00:28:02.148Z,101030
2023-04-02T00:29:01.444Z,101030
2023-04-02T00:30:01.002Z,101040
2023-04-02T00:31:00.755Z,101040
2023-04-02T00:32:00.955Z,101040
2023-04-02T00:33:00.807Z,101040
2023-04-02T00:34:01.792Z,101040
2023-04-02T00:35:01.146Z,101039
2023-04-02T00:36:04.791Z,101039
2023-04-02T00:37:01.069Z,101039
2023-04-02T00:38:00.885Z,101039
2023-04-02T00:39:03.252Z,101039
2023-04-02T00:40:01.236Z,101044
2023-04-02T00:41:02.783Z,101044
2023-04-02T00:42:01.578Z,101044
2023-04-02T00:43:00.696Z,101044
2023-04-02T00:44:01.473Z,101044
2023-04-02T00:45:01.098Z,101053
2023-04-02T00:46:03.041Z,101053
2023-04-02T00:47:03.117Z,101053
2023-04-02T00:48:10.664Z,101053
2023-04-02T00:49:06.389Z,101053
2023-04-02T00:50:10.614Z,101058
2023-04-02T00:51:08.496Z,101058
2023-04-02T00:52:02.087Z,101058
2023-04-02T00:53:07.554Z,101058
2023-04-02T00:54:02.877Z,101058
2023-04-02T00:55:05.577Z,101069
2023-04-02T00:56:02.209Z,101069
2023-04-02T00:57:01.010Z,101069
2023-04-02T00:58:01.134Z,101069
2023-04-02T00:59:00.833Z,101069
2023-04-02T01:00:10.613Z,101076
2023-04-02T01:01:01.402Z,101076
2023-04-02T01:02:10.646Z,101076
2023-04-02T01:03:10.673Z,101076
2023-04-02T01:04:01.409Z,101076
2023-04-02T01:05:01.829Z,101085
2023-04-02T01:06:03.781Z,101085
2023-04-02T01:07:04.258Z,101085
2023-04-02T01:08:08.088Z,101085
2023-04-02T01:09:10.636Z,101085
2023-04-02T01:10:10.608Z,101089
2023-04-02T01:11:03.969Z,101089
2023-04-02T01:12:10.607Z,101089
2023-04-02T01:13:01.760Z,101089
2023-04-02T01:14:09.467Z,101089
2023-04-02T01:15:10.619Z,101098
2023-04-02T01:16:01.768Z,101098
2023-04-02T01:17:03.981Z,101098
2023-04-02T01:18:10.618Z,101098
2023-04-02T01:19:10.605Z,101098
2023-04-02T01:20:00.678Z,101101
2023-04-02T01:21:00.692Z,101101
2023-04-02T01:22:01.688Z,101101
2023-04-02T01:23:10.624Z,101101
2023-04-02T01:24:04.915Z,101101
2023-04-02T01:25:01.924Z,101100
2023-04-02T01:26:09.155Z,101100
2023-04-02T01:27:04.069Z,101100
2023-04-02T01:28:06.866Z,101100
2023-04-02T01:29:04.887Z,101100
2023-04-02T01:30:01.424Z,101109
2023-04-02T01:31:01.885Z,101109
2023-04-02T01:32:05.847Z,101109
2023-04-02T01:33:00.914Z,101109
2023-04-02T01:34:02.156Z,101109
2023-04-02T01:35:00.828Z,101118
2023-04-02T01:36:10.649Z,101118
2023-04-02T01:37:07.430Z,101118
2023-04-02T01:38:10.621Z,101118
2023-04-02T01:39:07.969Z,101118
2023-04-02T01:40:00.679Z,101126
2023-04-02T01:41:05.506Z,101126
2023-04-02T01:42:07.445Z,101126
2023-04-02T01:43:00.675Z,101126
2023-04-02T01:44:10.059Z,101126
2023-04-02T01:45:03.223Z,101135
2023-04-02T01:46:10.613Z,101135
2023-04-02T01:47:01.831Z,101135
2023-04-02T01:48:04.327Z,101135
2023-04-02T01:49:02.976Z,101135
2023-04-02T01:50:04.021Z,101137
2023-04-02T01:51:06.157Z,101137
2023-04-02T01:52:00.787Z,101137
2023-04-02T01:53:03.221Z,101137
2023-04-02T01:54:02.744Z,101137
2023-04-02T01:55:01.175Z,101140
2023-04-02T01:56:01.310Z,101140
2023-04-02T01:57:00.786Z,101140
2023-04-02T01:58:01.068Z,101140
2023-04-02T01:59:01.766Z,101140
2023-04-02T02:00:01.307Z,101146
2023-04-02T02:01:02.907Z,101146
2023-04-02T02:02:00.674Z,101146
2023-04-02T02:03:01.348Z,101146
2023-04-02T02:05:00.940Z,101150
2023-04-02T02:06:01.053Z,101150
2023-04-02T02:07:01.733Z,101150
2023-04-02T02:08:01.239Z,101150
2023-04-02T02:09:02.112Z,101150
2023-04-02T02:10:01.224Z,101156
2023-04-02T02:11:01.324Z,101156
2023-04-02T02:12:01.518Z,101156
2023-04-02T02:13:01.073Z,101156
2023-04-02T02:14:04.426Z,101156
2023-04-02T02:15:01.276Z,101155
2023-04-02T02:16:02.944Z,101155
2023-04-02T02:17:01.684Z,101155
2023-04-02T02:18:04.179Z,101155
2023-04-02T02:19:02.017Z,101155
2023-04-02T02:20:02.402Z,101160
2023-04-02T02:21:03.769Z,101160
2023-04-02T02:22:04.003Z,101160
2023-04-02T02:23:01.193Z,101160
2023-04-02T02:24:01.529Z,101160
2023-04-02T02:25:03.548Z,101167
2023-04-02T02:26:00.701Z,101167
2023-04-02T02:27:00.670Z,101167
2023-04-02T02:28:04.871Z,101167
2023-04-02T02:29:03.506Z,101167
2023-04-02T02:30:10.134Z,101172
2023-04-02T02:31:04.302Z,101172
2023-04-02T02:32:01.742Z,101172
2023-04-02T02:33:07.065Z,101172
2023-04-02T02:34:05.231Z,101172
2023-04-02T02:35:05.150Z,101176
2023-04-02T02:36:06.201Z,101176
2023-04-02T02:37:03.799Z,101176
2023-04-02T02:38:10.622Z,101176
2023-04-02T02:39:00.685Z,101176
2023-04-02T02:40:02.662Z,101179
2023-04-02T02:41:05.525Z,101179
2023-04-02T02:42:07.096Z,101179
2023-04-02T02:43:02.874Z,101179
2023-04-02T02:44:09.858Z,101179
2023-04-02T02:45:04.065Z,101183
2023-04-02T02:46:03.854Z,101183
2023-04-02T02:47:02.624Z,101183
2023-04-02T02:48:01.466Z,101183
2023-04-02T02:49:02.375Z,101183
2023-04-02T02:50:03.097Z,101191
2023-04-02T02:51:03.669Z,101191
2023-04-02T02:52:10.601Z,101191
2023-04-02T02:53:03.236Z,101191
2023-04-02T02:54:02.715Z,101191
2023-04-02T02:55:03.945Z,101202
2023-04-02T02:56:01.177Z,101202
2023-04-02T02:57:03.171Z,101202
2023-04-02T02:58:03.957Z,101202
2023-04-02T02:59:02.292Z,101202
2023-04-02T03:00:01.203Z,101208
2023-04-02T03:01:02.197Z,101208
2023-04-02T03:02:01.361Z,101208
2023-04-02T03:03:03.054Z,101208
2023-04-02T03:04:00.996Z,101208
2023-04-02T03:05:00.949Z,101218
2023-04-02T03:06:03.882Z,101218
2023-04-02T03:07:01.584Z,101218
2023-04-02T03:08:02.338Z,101218
2023-04-02T03:09:09.946Z,101218
2023-04-02T03:10:10.641Z,101224
2023-04-02T03:11:00.687Z,101224
2023-04-02T03:12:04.078Z,101224
2023-04-02T03:13:09.577Z,101224
2023-04-02T03:14:09.675Z,101224
2023-04-02T03:15:01.702Z,101232
2023-04-02T03:16:10.749Z,101232
2023-04-02T03:17:10.598Z,101232
2023-04-02T03:18:00.945Z,101232
2023-04-02T03:19:07.214Z,101232
2023-04-02T03:20:02.710Z,101239
2023-04-02T03:21:07.271Z,101239
2023-04-02T03:22:05.691Z,101239
2023-04-02T03:23:10.848Z,101239
2023-04-02T03:24:02.656Z,101239
2023-04-02T03:25:10.591Z,101239
2023-04-02T03:26:07.130Z,101239
2023-04-02T03:27:09.050Z,101239
2023-04-02T03:28:04.980Z,101239
2023-04-02T03:29:06.144Z,101239
2023-04-02T03:30:10.613Z,101244
2023-04-02T03:31:04.553Z,101244
2023-04-02T03:32:00.690Z,101244
2023-04-02T03:33:04.173Z,101244
2023-04-02T03:34:06.709Z,101244
2023-04-02T03:35:05.721Z,101255
2023-04-02T03:36:10.643Z,101255
2023-04-02T03:37:04.629Z,101255
2023-04-02T03:38:06.751Z,101255
2023-04-02T03:39:09.024Z,101255
2023-04-02T03:40:00.686Z,101257
2023-04-02T03:41:03.839Z,101257
2023-04-02T03:42:04.647Z,101257
2023-04-02T03:43:10.619Z,101257
2023-04-02T03:44:04.395Z,101257
2023-04-02T03:45:04.558Z,101268
2023-04-02T03:46:10.637Z,101268
2023-04-02T03:47:04.309Z,101268
2023-04-02T03:48:04.312Z,101268
2023-04-02T03:49:05.134Z,101268
2023-04-02T03:50:10.601Z,101271
2023-04-02T03:51:04.776Z,101271
2023-04-02T03:52:04.687Z,101271
2023-04-02T03:53:01.401Z,101271
2023-04-02T03:54:01.023Z,101271
2023-04-02T03:55:01.544Z,101279
2023-04-02T03:56:01.111Z,101279
2023-04-02T03:57:01.026Z,101279
2023-04-02T03:58:00.682Z,101279
2023-04-02T03:59:05.213Z,101279
2023-04-02T04:00:04.022Z,101285
2023-04-02T04:01:01.697Z,101285
2023-04-02T04:02:10.668Z,101285
2023-04-02T04:03:10.701Z,101285
2023-04-02T04:04:10.730Z,101285
2023-04-02T04:05:01.699Z,101300
2023-04-02T04:06:05.349Z,101300
2023-04-02T04:07:00.917Z,101300
2023-04-02T04:08:10.605Z,101300
2023-04-02T04:09:08.085Z,101300
2023-04-02T04:10:01.589Z,101314
2023-04-02T04:11:02.511Z,101314
2023-04-02T04:12:08.065Z,101314
2023-04-02T04:13:03.146Z,101314
2023-04-02T04:14:10.609Z,101314
2023-04-02T04:15:10.607Z,101321
2023-04-02T04:16:05.284Z,101321
2023-04-02T04:17:10.609Z,101321
2023-04-02T04:18:10.597Z,101321
2023-04-02T04:19:05.578Z,101321
2023-04-02T04:20:06.793Z,101324
2023-04-02T04:21:01.883Z,101324
2023-04-02T04:22:09.987Z,101324
2023-04-02T04:23:10.654Z,101324
2023-04-02T04:24:01.600Z,101324
2023-04-02T04:25:02.427Z,101330
2023-04-02T04:26:00.673Z,101330
2023-04-02T04:27:04.921Z,101330
2023-04-02T04:28:00.727Z,101330
2023-04-02T04:29:10.761Z,101330
2023-04-02T04:30:10.594Z,101329
2023-04-02T04:31:08.218Z,101329
2023-04-02T04:32:10.674Z,101329
2023-04-02T04:33:04.104Z,101329
2023-04-02T04:34:05.516Z,101329
2023-04-02T04:35:05.380Z,101338
2023-04-02T04:36:02.093Z,101338
2023-04-02T04:37:02.975Z,101338
2023-04-02T04:38:05.913Z,101338
2023-04-02T04:39:05.551Z,101338
2023-04-02T04:40:03.945Z,101343
2023-04-02T04:41:02.995Z,101343
2023-04-02T04:42:02.465Z,101343
2023-04-02T04:43:06.497Z,101343
2023-04-02T04:44:05.912Z,101343
2023-04-02T04:45:01.732Z,101341
2023-04-02T04:46:08.364Z,101341
2023-04-02T04:47:06.193Z,101341
2023-04-02T04:48:03.484Z,101341
2023-04-02T04:49:03.945Z,101341
2023-04-02T04:50:07.738Z,101352
2023-04-02T04:51:02.618Z,101352
2023-04-02T04:52:10.631Z,101352
2023-04-02T04:53:04.872Z,101352
2023-04-02T04:54:00.741Z,101352
2023-04-02T04:55:01.067Z,101365
2023-04-02T04:56:18.229Z,101365
2023-04-02T04:57:02.123Z,101365
2023-04-02T04:58:03.453Z,101365
2023-04-02T04:59:02.850Z,101365
2023-04-02T05:00:09.190Z,101374
2023-04-02T05:01:09.530Z,101374
2023-04-02T05:02:05.091Z,101374
2023-04-02T05:03:10.604Z,101374
2023-04-02T05:04:05.024Z,101374
2023-04-02T05:05:02.554Z,101383
2023-04-02T05:06:04.731Z,101383
2023-04-02T05:07:00.687Z,101383
2023-04-02T05:08:09.314Z,101383
2023-04-02T05:09:05.220Z,101383
2023-04-02T05:10:00.690Z,101391
2023-04-02T05:11:02.600Z,101391
2023-04-02T05:12:06.869Z,101391
2023-04-02T05:13:04.373Z,101391
2023-04-02T05:14:03.415Z,101391
2023-04-02T05:15:01.685Z,101404
2023-04-02T05:16:09.319Z,101404
2023-04-02T05:17:07.743Z,101404
2023-04-02T05:18:00.721Z,101404
2023-04-02T05:19:05.769Z,101404
2023-04-02T05:20:04.172Z,101417
2023-04-02T05:21:01.696Z,101417
2023-04-02T05:22:01.726Z,101417
2023-04-02T05:23:01.691Z,101417
2023-04-02T05:24:00.681Z,101417
2023-04-02T05:25:10.600Z,101415
2023-04-02T05:26:05.517Z,101415
2023-04-02T05:27:04.428Z,101415
2023-04-02T05:28:10.611Z,101415
2023-04-02T05:29:05.523Z,101415
2023-04-02T05:30:06.099Z,101430
2023-04-02T05:31:04.378Z,101430
2023-04-02T05:32:10.640Z,101430
2023-04-02T05:33:03.701Z,101430
2023-04-02T05:34:01.140Z,101430
2023-04-02T05:35:01.150Z,101451
2023-04-02T05:36:00.723Z,101451
2023-04-02T05:37:00.770Z,101451
2023-04-02T05:38:00.971Z,101451
2023-04-02T05:39:00.785Z,101451
2023-04-02T05:40:10.217Z,101452
2023-04-02T05:41:03.371Z,101452
2023-04-02T05:42:03.398Z,101452
2023-04-02T05:43:02.460Z,101452
2023-04-02T05:44:10.607Z,101452
2023-04-02T05:45:06.501Z,101453
2023-04-02T05:46:04.680Z,101453
2023-04-02T05:47:00.833Z,101453
2023-04-02T05:48:04.452Z,101453
2023-04-02T05:49:03.075Z,101453
2023-04-02T05:50:10.601Z,101467
2023-04-02T05:51:01.665Z,101467
2023-04-02T05:52:02.595Z,101467
2023-04-02T05:53:05.525Z,101467
2023-04-02T05:54:02.731Z,101467
2023-04-02T05:55:00.678Z,101469
2023-04-02T05:56:00.681Z,101469
2023-04-02T05:57:04.015Z,101469
2023-04-02T05:58:29.503Z,101469
2023-04-02T05:59:05.110Z,101469
2023-04-02T06:00:04.428Z,101476
2023-04-02T06:01:03.622Z,101476
2023-04-02T06:02:06.326Z,101476
2023-04-02T06:03:06.262Z,101476
2023-04-02T06:04:05.297Z,101476
2023-04-02T06:05:04.254Z,101482
2023-04-02T06:06:05.502Z,101482
2023-04-02T06:07:04.483Z,101482
2023-04-02T06:08:10.602Z,101482
2023-04-02T06:09:04.842Z,101482
2023-04-02T06:10:10.606Z,101494
2023-04-02T06:11:10.615Z,101494
2023-04-02T06:12:07.102Z,101494
2023-04-02T06:13:05.158Z,101494
2023-04-02T06:14:02.148Z,101494
2023-04-02T06:15:00.830Z,101502
2023-04-02T06:16:01.081Z,101502
2023-04-02T06:17:00.765Z,101502
2023-04-02T06:18:00.793Z,101502
2023-04-02T06:19:01.557Z,101502
2023-04-02T06:20:03.242Z,101505
2023-04-02T06:21:01.499Z,101505
2023-04-02T06:22:08.597Z,101505
2023-04-02T06:23:05.652Z,101505
2023-04-02T06:24:03.311Z,101505
2023-04-02T06:25:04.175Z,101510
2023-04-02T06:26:03.568Z,101510
2023-04-02T06:27:03.304Z,101510
2023-04-02T06:28:03.164Z,101510
2023-04-02T06:29:03.964Z,101510
2023-04-02T06:30:04.452Z,101527
2023-04-02T06:31:04.833Z,101527
2023-04-02T06:32:01.047Z,101527
2023-04-02T06:33:00.773Z,101527
2023-04-02T06:34:01.968Z,101527
2023-04-02T06:35:00.725Z,101540
2023-04-02T06:36:02.802Z,101540
2023-04-02T06:37:03.772Z,101540
2023-04-02T06:38:02.976Z,101540
2023-04-02T06:39:03.694Z,101540
2023-04-02T06:40:02.373Z,101534
2023-04-02T06:41:04.253Z,101534
2023-04-02T06:42:08.114Z,101534
2023-04-02T06:43:04.903Z,101534
2023-04-02T06:44:06.123Z,101534
2023-04-02T06:45:01.047Z,101547
2023-04-02T06:46:10.630Z,101547
2023-04-02T06:47:03.761Z,101547
2023-04-02T06:48:01.722Z,101547
2023-04-02T06:49:08.535Z,101547
2023-04-02T06:50:10.611Z,101556
2023-04-02T06:51:03.967Z,101556
2023-04-02T06:52:02.589Z,101556
2023-04-02T06:53:03.429Z,101556
2023-04-02T06:54:00.696Z,101556
2023-04-02T06:55:04.224Z,101546
2023-04-02T06:56:03.985Z,101546
2023-04-02T06:57:00.842Z,101546
2023-04-02T06:58:00.726Z,101546
2023-04-02T06:59:00.763Z,101546
2023-04-02T07:00:00.717Z,101549
2023-04-02T07:01:00.728Z,101549
2023-04-02T07:02:03.202Z,101549
2023-04-02T07:03:01.859Z,101549
2023-04-02T07:04:00.714Z,101549
2023-04-02T07:05:04.087Z,101551
2023-04-02T07:06:01.535Z,101551
2023-04-02T07:07:00.700Z,101551
2023-04-02T07:08:00.710Z,101551
2023-04-02T07:09:00.715Z,101551
2023-04-02T07:10:00.701Z,101558
2023-04-02T07:11:00.744Z,101558
2023-04-02T07:12:00.706Z,101558
2023-04-02T07:13:00.754Z,101558
2023-04-02T07:14:00.693Z,101558
2023-04-02T07:15:00.706Z,101568
2023-04-02T07:16:00.767Z,101568
2023-04-02T07:17:00.690Z,101568
2023-04-02T07:18:00.771Z,101568
2023-04-02T07:19:00.732Z,101568
2023-04-02T07:20:00.689Z,101575
2023-04-02T07:21:00.750Z,101575
2023-04-02T07:22:00.785Z,101575
2023-04-02T07:23:00.722Z,101575
2023-04-02T07:36:00.823Z,101596
2023-04-02T07:37:00.732Z,101617
2023-04-02T07:38:00.700Z,101617
2023-04-02T07:39:01.010Z,101617
2023-04-02T07:40:00.853Z,101617
2023-04-02T07:41:04.672Z,101617
2023-04-02T07:42:01.027Z,101628
2023-04-02T07:43:01.112Z,101628
2023-04-02T07:44:00.750Z,101628
2023-04-02T07:45:00.724Z,101628
2023-04-02T07:46:01.025Z,101628
2023-04-02T07:47:00.817Z,101631
2023-04-02T07:48:04.742Z,101631
2023-04-02T07:49:00.716Z,101631
2023-04-02T07:50:00.760Z,101631
2023-04-02T07:51:00.908Z,101631
2023-04-02T07:52:00.778Z,101643
2023-04-02T07:53:00.749Z,101643
2023-04-02T07:54:00.690Z,101643
2023-04-02T07:55:00.794Z,101643
2023-04-02T07:56:02.152Z,101643
2023-04-02T07:57:00.707Z,101649
2023-04-02T07:58:00.727Z,101649
2023-04-02T07:59:01.015Z,101649
2023-04-02T08:00:00.713Z,101649
2023-04-02T08:01:00.701Z,101649
2023-04-02T08:02:00.701Z,101656
2023-04-02T08:03:00.752Z,101656
2023-04-02T08:04:02.010Z,101656
2023-04-02T08:05:00.702Z,101656
2023-04-02T08:06:00.706Z,101656
2023-04-02T08:07:00.723Z,101665
2023-04-02T08:08:00.705Z,101665
2023-04-02T08:09:00.721Z,101665
2023-04-02T08:10:00.903Z,101665
2023-04-02T08:11:00.721Z,101665
2023-04-02T08:12:00.703Z,101663
2023-04-02T08:13:00.702Z,101663
2023-04-02T08:14:00.698Z,101663
2023-04-02T08:15:00.971Z,101663
2023-04-02T08:16:01.059Z,101663
2023-04-02T08:17:00.779Z,101669
2023-04-02T08:18:00.701Z,101669
2023-04-02T08:19:00.689Z,101669
2023-04-02T08:20:00.744Z,101669
2023-04-02T08:21:00.767Z,101669
2023-04-02T08:22:00.761Z,101677
2023-04-02T08:23:01.039Z,101677
2023-04-02T08:24:00.705Z,101677
2023-04-02T08:25:00.762Z,101677
2023-04-02T08:26:01.101Z,101677
2023-04-02T08:27:00.829Z,101674
2023-04-02T08:28:00.692Z,101674
2023-04-02T08:29:00.882Z,101674
2023-04-02T08:30:00.718Z,101674
2023-04-02T08:31:00.959Z,101674
2023-04-02T08:32:00.893Z,101690
2023-04-02T08:33:01.038Z,101690
2023-04-02T08:34:00.757Z,101690
2023-04-02T08:35:00.828Z,101690
2023-04-02T08:36:00.741Z,101690
2023-04-02T08:37:00.696Z,101696
2023-04-02T08:38:00.722Z,101696
2023-04-02T08:39:00.713Z,101696
2023-04-02T08:40:00.716Z,101696
2023-04-02T08:41:01.759Z,101696
2023-04-02T08:42:11.346Z,101704
2023-04-02T08:43:10.619Z,101704
2023-04-02T08:44:10.623Z,101704
2023-04-02T08:45:23.712Z,101704
2023-04-02T08:46:06.350Z,101704
2023-04-02T08:47:04.044Z,101711
2023-04-02T08:48:00.882Z,101711
2023-04-02T08:49:03.484Z,101711
2023-04-02T08:50:02.406Z,101711
2023-04-02T08:51:01.638Z,101711
2023-04-02T08:52:00.735Z,101713
2023-04-02T08:53:05.508Z,101713
2023-04-02T08:54:02.382Z,101713
2023-04-02T08:55:01.401Z,101713
2023-04-02T08:56:08.207Z,101713
2023-04-02T08:57:06.654Z,101712
2023-04-02T08:58:03.747Z,101712
2023-04-02T08:59:02.299Z,101712
2023-04-02T09:00:05.306Z,101712
2023-04-02T09:01:02.058Z,101712
2023-04-02T09:02:00.720Z,101719
2023-04-02T09:03:07.255Z,101719
2023-04-02T09:04:01.656Z,101719
2023-04-02T09:05:02.591Z,101719
2023-04-02T09:06:01.947Z,101719
2023-04-02T09:07:00.728Z,101721
2023-04-02T09:08:02.058Z,101721
2023-04-02T09:09:00.716Z,101721
2023-04-02T09:10:00.844Z,101721
2023-04-02T09:11:00.771Z,101721
2023-04-02T09:12:02.767Z,101724
2023-04-02T09:13:01.767Z,101724
2023-04-02T09:14:04.721Z,101724
2023-04-02T09:15:10.608Z,101724
2023-04-02T09:16:06.499Z,101724
2023-04-02T09:17:02.594Z,101734
2023-04-02T09:18:10.648Z,101734
2023-04-02T09:19:00.690Z,101734
2023-04-02T09:20:02.845Z,101734
2023-04-02T09:21:06.601Z,101734
2023-04-02T09:22:01.684Z,101740
2023-04-02T09:23:00.711Z,101740
2023-04-02T09:24:02.291Z,101740
2023-04-02T09:25:01.664Z,101740
2023-04-02T09:26:04.689Z,101740
2023-04-02T09:27:00.722Z,101753
2023-04-02T09:28:01.983Z,101753
2023-04-02T09:29:04.038Z,101753
2023-04-02T09:30:00.699Z,101753
2023-04-02T09:31:10.634Z,101753
2023-04-02T09:32:06.879Z,101765
2023-04-02T09:33:02.562Z,101765
2023-04-02T09:34:00.695Z,101765
2023-04-02T09:35:12.271Z,101765
2023-04-02T09:36:00.773Z,101765
2023-04-02T09:37:07.073Z,101764
2023-04-02T09:38:10.620Z,101764
2023-04-02T09:39:02.966Z,101764
2023-04-02T09:40:10.616Z,101764
2023-04-02T09:41:04.973Z,101764
2023-04-02T09:42:05.989Z,101763
2023-04-02T09:43:03.275Z,101763
2023-04-02T09:44:10.608Z,101763
2023-04-02T09:45:10.617Z,101763
2023-04-02T09:46:02.375Z,101763
2023-04-02T09:47:00.785Z,101768
2023-04-02T09:48:00.763Z,101768
2023-04-02T09:49:01.240Z,101768
2023-04-02T09:50:10.602Z,101768
2023-04-02T09:51:10.389Z,101768
2023-04-02T09:52:10.630Z,101772
2023-04-02T09:53:10.615Z,101772
2023-04-02T09:54:01.710Z,101772
2023-04-02T09:55:10.597Z,101772
2023-04-02T09:56:09.523Z,101772
2023-04-02T09:57:02.565Z,101790
2023-04-02T09:58:10.603Z,101790
2023-04-02T09:59:00.677Z,101790
2023-04-02T10:00:25.267Z,101790
2023-04-02T10:01:00.800Z,101790
2023-04-02T10:02:00.861Z,101800
2023-04-02T10:03:00.794Z,101800
2023-04-02T10:04:01.949Z,101800
2023-04-02T10:05:02.673Z,101800
2023-04-02T10:06:09.749Z,101800
2023-04-02T10:07:01.009Z,101809
2023-04-02T10:08:10.619Z,101809
2023-04-02T10:09:10.600Z,101809
2023-04-02T10:10:01.994Z,101809
2023-04-02T10:11:01.924Z,101809
2023-04-02T10:12:03.211Z,101814
2023-04-02T10:13:01.734Z,101814
2023-04-02T10:14:02.699Z,101814
2023-04-02T10:15:02.276Z,101814
2023-04-02T10:16:03.255Z,101814
2023-04-02T10:17:06.295Z,101804
2023-04-02T10:18:05.686Z,101804
2023-04-02T10:19:09.288Z,101804
2023-04-02T10:20:04.751Z,101804
2023-04-02T10:21:02.258Z,101804
2023-04-02T10:22:04.095Z,101814
2023-04-02T10:23:00.704Z,101814
2023-04-02T10:24:00.906Z,101814
2023-04-02T10:25:00.759Z,101814
2023-04-02T10:26:07.232Z,101814
2023-04-02T10:27:00.695Z,101810
2023-04-02T10:28:10.617Z,101810
2023-04-02T10:29:01.698Z,101810
2023-04-02T10:30:06.562Z,101810
2023-04-02T10:31:06.771Z,101810
2023-04-02T10:32:00.693Z,101814
2023-04-02T10:33:04.125Z,101814
2023-04-02T10:34:03.399Z,101814
2023-04-02T10:35:02.437Z,101814
2023-04-02T10:36:08.038Z,101814
2023-04-02T10:37:08.227Z,101817
2023-04-02T10:38:08.985Z,101817
2023-04-02T10:39:05.887Z,101817
2023-04-02T10:40:07.841Z,101817
2023-04-02T10:41:10.609Z,101817
2023-04-02T10:42:10.055Z,101808
2023-04-02T10:43:10.607Z,101808
2023-04-02T10:44:17.163Z,101808
2023-04-02T10:45:10.612Z,101808
2023-04-02T10:46:00.758Z,101808
2023-04-02T10:47:00.693Z,101822
2023-04-02T10:48:01.797Z,101822
2023-04-02T10:49:08.136Z,101822
2023-04-02T10:50:03.975Z,101822
2023-04-02T10:51:05.667Z,101822
2023-04-02T10:52:10.608Z,101835
2023-04-02T10:53:08.488Z,101835
2023-04-02T10:54:09.335Z,101835
2023-04-02T10:55:03.111Z,101835
2023-04-02T10:56:02.447Z,101835
2023-04-02T10:57:07.817Z,101830
2023-04-02T10:58:06.306Z,101830
2023-04-02T10:59:04.844Z,101830
2023-04-02T11:00:04.626Z,101830
2023-04-02T11:01:04.711Z,101830
2023-04-02T11:02:03.099Z,101843
2023-04-02T11:03:03.698Z,101843
2023-04-02T11:04:00.711Z,101843
2023-04-02T11:05:04.564Z,101843
2023-04-02T11:06:04.708Z,101843
2023-04-02T11:07:13.798Z,101850
2023-04-02T11:08:04.538Z,101850
2023-04-02T11:09:02.647Z,101850
2023-04-02T11:10:00.871Z,101850
2023-04-02T11:11:10.640Z,101850
2023-04-02T11:12:01.984Z,101848
2023-04-02T11:13:04.758Z,101848
2023-04-02T11:14:08.253Z,101848
2023-04-02T11:15:01.236Z,101848
2023-04-02T11:16:00.863Z,101848
2023-04-02T11:17:01.078Z,101859
2023-04-02T11:18:00.808Z,101859
2023-04-02T11:19:10.618Z,101859
2023-04-02T11:20:10.702Z,101859
2023-04-02T11:21:10.611Z,101859
2023-04-02T11:22:04.322Z,101862
2023-04-02T11:23:08.497Z,101862
2023-04-02T11:24:01.601Z,101862
2023-04-02T11:25:01.720Z,101862
2023-04-02T11:26:10.620Z,101862
2023-04-02T11:27:10.648Z,101865
2023-04-02T11:28:10.615Z,101865
2023-04-02T11:29:05.506Z,101865
2023-04-02T11:30:10.688Z,101865
2023-04-02T11:31:01.012Z,101865
2023-04-02T11:32:10.620Z,101872
2023-04-02T11:33:10.650Z,101872
2023-04-02T11:34:00.722Z,101872
2023-04-02T11:35:06.656Z,101872
2023-04-02T11:36:00.739Z,101872
2023-04-02T11:37:01.584Z,101874
2023-04-02T11:38:02.345Z,101874
2023-04-02T11:39:11.031Z,101874
2023-04-02T11:40:02.261Z,101874
2023-04-02T11:41:00.747Z,101874
2023-04-02T11:42:01.996Z,101886
2023-04-02T11:43:10.635Z,101886
2023-04-02T11:44:01.022Z,101886
2023-04-02T11:45:10.610Z,101886
2023-04-02T11:46:01.673Z,101886
2023-04-02T11:47:10.623Z,101885
2023-04-02T11:48:00.868Z,101885
2023-04-02T11:49:10.614Z,101885
2023-04-02T11:50:01.574Z,101885
2023-04-02T11:51:10.127Z,101885
2023-04-02T11:52:11.481Z,101893
2023-04-02T11:53:03.470Z,101893
2023-04-02T11:54:00.826Z,101893
2023-04-02T11:55:04.851Z,101893
2023-04-02T11:56:10.611Z,101893
2023-04-02T11:57:08.261Z,101892
2023-04-02T11:58:06.437Z,101892
2023-04-02T11:59:02.491Z,101892
2023-04-02T12:00:00.698Z,101892
2023-04-02T12:01:10.645Z,101892
2023-04-02T12:02:08.383Z,101897
2023-04-02T12:03:10.672Z,101897
2023-04-02T12:04:06.853Z,101897
2023-04-02T12:05:08.779Z,101897
2023-04-02T12:06:10.628Z,101897
2023-04-02T12:07:10.668Z,101901
2023-04-02T12:08:10.743Z,101901
2023-04-02T12:09:10.621Z,101901
2023-04-02T12:10:04.052Z,101901
2023-04-02T12:11:01.354Z,101901
2023-04-02T12:12:12.281Z,101895
2023-04-02T12:13:00.761Z,101895
2023-04-02T12:14:01.729Z,101895
2023-04-02T12:15:00.911Z,101895
2023-04-02T12:16:01.316Z,101895
2023-04-02T12:17:01.964Z,101902
2023-04-02T12:18:05.501Z,101902
2023-04-02T12:19:01.287Z,101902
2023-04-02T12:20:05.103Z,101902
2023-04-02T12:21:01.930Z,101902
2023-04-02T12:22:00.868Z,101916
2023-04-02T12:23:01.222Z,101916
2023-04-02T12:24:02.897Z,101916
2023-04-02T12:25:03.367Z,101916
2023-04-02T12:26:02.294Z,101916
2023-04-02T12:27:10.294Z,101922
2023-04-02T12:28:02.746Z,101922
2023-04-02T12:29:10.616Z,101922
2023-04-02T12:30:10.636Z,101922
2023-04-02T12:31:01.760Z,101922
2023-04-02T12:32:00.758Z,101926
2023-04-02T12:33:10.649Z,101926
2023-04-02T12:34:00.745Z,101926
2023-04-02T12:35:01.895Z,101926
2023-04-02T12:36:01.393Z,101926
2023-04-02T12:37:02.188Z,101932
2023-04-02T12:38:00.773Z,101932
2023-04-02T12:39:00.732Z,101932
2023-04-02T12:40:02.647Z,101932
2023-04-02T12:41:02.038Z,101932